sensor_id;sensor_type;location;lat;lon;timestamp;P1;durP1;ratioP1;P2;durP2;ratioP2
32250;SDS011;41295;48.518;9.206;2023-07-24T00:01:44;12.73;;;7.63;;
32250;SDS011;41295;48.518;9.206;2023-07-24T00:03:45;13.30;;;8.20;;
32250;SDS011;41295;48.518;9.206;2023-07-24T00:05:48;15.57;;;8.43;;
32250;SDS011;41295;48.518;9.206;2023-07-24T00:07:51;15.00;;;8.23;;
32250;SDS011;41295;48.518;9.206;2023-07-24T00:09:54;12.93;;;7.80;;
32250;SDS011;41295;48.518;9.206;2023-07-24T00:11:57;12.75;;;7.57;;
32250;SDS011;41295;48.518;9.206;2023-07-24T00:14:00;14.57;;;7.93;;
32250;SDS011;41295;48.518;9.206;2023-07-24T00:16:05;13.00;;;8.07;;
32250;SDS011;41295;48.518;9.206;2023-07-24T00:18:09;18.90;;;7.50;;
32250;SDS011;41295;48.518;9.206;2023-07-24T00:20:11;14.10;;;8.07;;
32250;SDS011;41295;48.518;9.206;2023-07-24T00:22:13;13.55;;;7.65;;
32250;SDS011;41295;48.518;9.206;2023-07-24T00:24:16;12.00;;;7.25;;
32250;SDS011;41295;48.518;9.206;2023-07-24T00:26:20;14.27;;;8.57;;
32250;SDS011;41295;48.518;9.206;2023-07-24T00:28:22;12.45;;;8.40;;
32250;SDS011;41295;48.518;9.206;2023-07-24T00:30:25;17.05;;;8.63;;
32250;SDS011;41295;48.518;9.206;2023-07-24T00:32:28;16.58;;;8.55;;
32250;SDS011;41295;48.518;9.206;2023-07-24T00:34:29;16.88;;;8.85;;
32250;SDS011;41295;48.518;9.206;2023-07-24T00:36:32;13.65;;;8.05;;
32250;SDS011;41295;48.518;9.206;2023-07-24T00:38:35;12.35;;;7.45;;
32250;SDS011;41295;48.518;9.206;2023-07-24T00:40:37;14.45;;;8.43;;
32250;SDS011;41295;48.518;9.206;2023-07-24T00:42:45;16.88;;;8.98;;
32250;SDS011;41295;48.518;9.206;2023-07-24T00:44:49;15.32;;;7.90;;
32250;SDS011;41295;48.518;9.206;2023-07-24T00:46:51;15.90;;;8.32;;
32250;SDS011;41295;48.518;9.206;2023-07-24T00:48:55;15.02;;;8.30;;
32250;SDS011;41295;48.518;9.206;2023-07-24T00:50:58;15.65;;;8.30;;
32250;SDS011;41295;48.518;9.206;2023-07-24T00:53:02;15.23;;;7.88;;
32250;SDS011;41295;48.518;9.206;2023-07-24T00:55:04;17.25;;;8.40;;
32250;SDS011;41295;48.518;9.206;2023-07-24T00:57:07;14.13;;;8.15;;
32250;SDS011;41295;48.518;9.206;2023-07-24T00:59:11;14.85;;;8.57;;
32250;SDS011;41295;48.518;9.206;2023-07-24T01:01:14;12.07;;;7.60;;
32250;SDS011;41295;48.518;9.206;2023-07-24T01:03:19;16.08;;;7.82;;
32250;SDS011;41295;48.518;9.206;2023-07-24T01:05:25;15.40;;;8.15;;
32250;SDS011;41295;48.518;9.206;2023-07-24T01:07:28;14.80;;;8.63;;
32250;SDS011;41295;48.518;9.206;2023-07-24T01:09:30;14.70;;;8.20;;
32250;SDS011;41295;48.518;9.206;2023-07-24T01:11:35;16.85;;;8.27;;
32250;SDS011;41295;48.518;9.206;2023-07-24T01:13:44;15.45;;;8.73;;
32250;SDS011;41295;48.518;9.206;2023-07-24T01:15:56;13.98;;;8.13;;
32250;SDS011;41295;48.518;9.206;2023-07-24T01:18:06;13.93;;;8.43;;
32250;SDS011;41295;48.518;9.206;2023-07-24T01:20:11;17.02;;;8.23;;
32250;SDS011;41295;48.518;9.206;2023-07-24T01:22:15;15.60;;;8.82;;
32250;SDS011;41295;48.518;9.206;2023-07-24T01:24:29;14.95;;;8.18;;
32250;SDS011;41295;48.518;9.206;2023-07-24T01:26:37;18.02;;;7.78;;
32250;SDS011;41295;48.518;9.206;2023-07-24T01:28:40;13.70;;;8.05;;
32250;SDS011;41295;48.518;9.206;2023-07-24T01:30:43;13.23;;;7.63;;
32250;SDS011;41295;48.518;9.206;2023-07-24T01:32:45;13.57;;;7.90;;
32250;SDS011;41295;48.518;9.206;2023-07-24T01:34:48;16.63;;;8.75;;
32250;SDS011;41295;48.518;9.206;2023-07-24T01:36:51;14.48;;;8.05;;
32250;SDS011;41295;48.518;9.206;2023-07-24T01:38:54;14.05;;;8.38;;
32250;SDS011;41295;48.518;9.206;2023-07-24T01:40:57;16.30;;;8.85;;
32250;SDS011;41295;48.518;9.206;2023-07-24T01:43:01;14.20;;;7.97;;
32250;SDS011;41295;48.518;9.206;2023-07-24T01:45:04;15.45;;;8.73;;
32250;SDS011;41295;48.518;9.206;2023-07-24T01:47:06;15.52;;;8.43;;
32250;SDS011;41295;48.518;9.206;2023-07-24T01:49:09;17.02;;;8.35;;
32250;SDS011;41295;48.518;9.206;2023-07-24T01:51:12;14.00;;;8.73;;
32250;SDS011;41295;48.518;9.206;2023-07-24T01:53:14;14.65;;;9.00;;
32250;SDS011;41295;48.518;9.206;2023-07-24T01:55:16;15.10;;;8.43;;
32250;SDS011;41295;48.518;9.206;2023-07-24T01:57:19;14.57;;;8.10;;
32250;SDS011;41295;48.518;9.206;2023-07-24T01:59:22;14.20;;;8.02;;
32250;SDS011;41295;48.518;9.206;2023-07-24T02:01:25;14.88;;;8.40;;
32250;SDS011;41295;48.518;9.206;2023-07-24T02:03:27;18.63;;;8.32;;
32250;SDS011;41295;48.518;9.206;2023-07-24T02:05:31;13.30;;;8.50;;
32250;SDS011;41295;48.518;9.206;2023-07-24T02:07:33;16.70;;;8.73;;
32250;SDS011;41295;48.518;9.206;2023-07-24T02:09:36;12.63;;;7.97;;
32250;SDS011;41295;48.518;9.206;2023-07-24T02:11:39;16.45;;;8.38;;
32250;SDS011;41295;48.518;9.206;2023-07-24T02:13:43;14.95;;;8.88;;
32250;SDS011;41295;48.518;9.206;2023-07-24T02:15:47;14.98;;;9.00;;
32250;SDS011;41295;48.518;9.206;2023-07-24T02:17:50;14.70;;;8.13;;
32250;SDS011;41295;48.518;9.206;2023-07-24T02:19:53;14.48;;;8.27;;
32250;SDS011;41295;48.518;9.206;2023-07-24T02:21:55;13.27;;;8.25;;
32250;SDS011;41295;48.518;9.206;2023-07-24T02:23:59;15.90;;;8.20;;
32250;SDS011;41295;48.518;9.206;2023-07-24T02:26:01;13.48;;;7.93;;
32250;SDS011;41295;48.518;9.206;2023-07-24T02:28:04;13.32;;;8.07;;
32250;SDS011;41295;48.518;9.206;2023-07-24T02:30:07;16.90;;;9.18;;
32250;SDS011;41295;48.518;9.206;2023-07-24T02:32:12;16.85;;;8.65;;
32250;SDS011;41295;48.518;9.206;2023-07-24T02:34:13;15.93;;;8.25;;
32250;SDS011;41295;48.518;9.206;2023-07-24T02:36:16;13.55;;;8.07;;
32250;SDS011;41295;48.518;9.206;2023-07-24T02:38:19;17.95;;;8.85;;
32250;SDS011;41295;48.518;9.206;2023-07-24T02:40:21;13.60;;;8.52;;
32250;SDS011;41295;48.518;9.206;2023-07-24T02:42:24;14.40;;;8.07;;
32250;SDS011;41295;48.518;9.206;2023-07-24T02:44:27;13.98;;;8.45;;
32250;SDS011;41295;48.518;9.206;2023-07-24T02:46:29;13.65;;;8.30;;
32250;SDS011;41295;48.518;9.206;2023-07-24T02:48:34;15.52;;;9.45;;
32250;SDS011;41295;48.518;9.206;2023-07-24T02:50:37;13.05;;;8.05;;
32250;SDS011;41295;48.518;9.206;2023-07-24T02:52:42;21.45;;;8.93;;
32250;SDS011;41295;48.518;9.206;2023-07-24T02:54:44;13.88;;;8.23;;
32250;SDS011;41295;48.518;9.206;2023-07-24T02:56:47;15.95;;;9.35;;
32250;SDS011;41295;48.518;9.206;2023-07-24T02:58:50;14.75;;;8.30;;
32250;SDS011;41295;48.518;9.206;2023-07-24T03:00:52;17.35;;;9.57;;
32250;SDS011;41295;48.518;9.206;2023-07-24T03:02:55;16.95;;;8.68;;
32250;SDS011;41295;48.518;9.206;2023-07-24T03:04:59;15.25;;;9.00;;
32250;SDS011;41295;48.518;9.206;2023-07-24T03:07:02;15.90;;;9.05;;
32250;SDS011;41295;48.518;9.206;2023-07-24T03:09:05;15.18;;;9.25;;
32250;SDS011;41295;48.518;9.206;2023-07-24T03:11:08;14.15;;;8.63;;
32250;SDS011;41295;48.518;9.206;2023-07-24T03:13:10;16.10;;;9.27;;
32250;SDS011;41295;48.518;9.206;2023-07-24T03:15:13;15.50;;;7.97;;
32250;SDS011;41295;48.518;9.206;2023-07-24T03:17:16;13.23;;;7.47;;
32250;SDS011;41295;48.518;9.206;2023-07-24T03:19:19;16.20;;;8.55;;
32250;SDS011;41295;48.518;9.206;2023-07-24T03:21:23;16.38;;;8.43;;
32250;SDS011;41295;48.518;9.206;2023-07-24T03:23:25;16.08;;;8.15;;
32250;SDS011;41295;48.518;9.206;2023-07-24T03:25:28;16.15;;;8.73;;
32250;SDS011;41295;48.518;9.206;2023-07-24T03:27:32;13.90;;;7.88;;
32250;SDS011;41295;48.518;9.206;2023-07-24T03:29:35;15.85;;;8.40;;
32250;SDS011;41295;48.518;9.206;2023-07-24T03:31:38;16.33;;;8.32;;
32250;SDS011;41295;48.518;9.206;2023-07-24T03:33:41;16.98;;;9.65;;
32250;SDS011;41295;48.518;9.206;2023-07-24T03:35:43;17.13;;;8.20;;
32250;SDS011;41295;48.518;9.206;2023-07-24T03:37:47;15.80;;;8.80;;
32250;SDS011;41295;48.518;9.206;2023-07-24T03:39:50;17.80;;;8.52;;
32250;SDS011;41295;48.518;9.206;2023-07-24T03:41:53;15.35;;;8.38;;
32250;SDS011;41295;48.518;9.206;2023-07-24T03:43:55;16.27;;;8.93;;
32250;SDS011;41295;48.518;9.206;2023-07-24T03:45:57;14.05;;;8.43;;
32250;SDS011;41295;48.518;9.206;2023-07-24T03:48:00;14.98;;;8.93;;
32250;SDS011;41295;48.518;9.206;2023-07-24T03:50:03;15.75;;;9.18;;
32250;SDS011;41295;48.518;9.206;2023-07-24T03:52:06;20.13;;;8.95;;
32250;SDS011;41295;48.518;9.206;2023-07-24T03:54:10;19.52;;;8.85;;
32250;SDS011;41295;48.518;9.206;2023-07-24T03:56:12;19.27;;;8.98;;
32250;SDS011;41295;48.518;9.206;2023-07-24T03:58:15;16.58;;;9.35;;
32250;SDS011;41295;48.518;9.206;2023-07-24T04:00:18;15.77;;;8.57;;
32250;SDS011;41295;48.518;9.206;2023-07-24T04:02:21;18.73;;;8.23;;
32250;SDS011;41295;48.518;9.206;2023-07-24T04:04:24;16.80;;;8.52;;
32250;SDS011;41295;48.518;9.206;2023-07-24T04:06:26;14.43;;;8.60;;
32250;SDS011;41295;48.518;9.206;2023-07-24T04:08:31;15.55;;;8.90;;
32250;SDS011;41295;48.518;9.206;2023-07-24T04:10:35;15.05;;;8.77;;
32250;SDS011;41295;48.518;9.206;2023-07-24T04:12:38;17.15;;;8.10;;
32250;SDS011;41295;48.518;9.206;2023-07-24T04:14:41;14.88;;;8.20;;
32250;SDS011;41295;48.518;9.206;2023-07-24T04:16:43;18.20;;;8.93;;
32250;SDS011;41295;48.518;9.206;2023-07-24T04:18:47;16.73;;;9.48;;
32250;SDS011;41295;48.518;9.206;2023-07-24T04:20:49;17.55;;;9.38;;
32250;SDS011;41295;48.518;9.206;2023-07-24T04:22:52;15.45;;;8.45;;
32250;SDS011;41295;48.518;9.206;2023-07-24T04:24:55;14.75;;;9.00;;
32250;SDS011;41295;48.518;9.206;2023-07-24T04:26:59;15.32;;;8.73;;
32250;SDS011;41295;48.518;9.206;2023-07-24T04:29:01;21.35;;;10.18;;
32250;SDS011;41295;48.518;9.206;2023-07-24T04:31:04;18.20;;;8.90;;
32250;SDS011;41295;48.518;9.206;2023-07-24T04:33:07;16.90;;;9.18;;
32250;SDS011;41295;48.518;9.206;2023-07-24T04:35:09;14.52;;;8.68;;
32250;SDS011;41295;48.518;9.206;2023-07-24T04:37:12;15.70;;;8.93;;
32250;SDS011;41295;48.518;9.206;2023-07-24T04:39:15;20.85;;;9.50;;
32250;SDS011;41295;48.518;9.206;2023-07-24T04:41:17;15.93;;;9.30;;
32250;SDS011;41295;48.518;9.206;2023-07-24T04:43:21;16.13;;;9.50;;
32250;SDS011;41295;48.518;9.206;2023-07-24T04:45:24;18.83;;;8.75;;
32250;SDS011;41295;48.518;9.206;2023-07-24T04:47:26;17.40;;;9.40;;
32250;SDS011;41295;48.518;9.206;2023-07-24T04:49:29;20.42;;;9.23;;
32250;SDS011;41295;48.518;9.206;2023-07-24T04:51:34;15.73;;;8.93;;
32250;SDS011;41295;48.518;9.206;2023-07-24T04:53:37;18.67;;;8.95;;
32250;SDS011;41295;48.518;9.206;2023-07-24T04:55:39;18.38;;;9.35;;
32250;SDS011;41295;48.518;9.206;2023-07-24T04:57:42;20.05;;;9.38;;
32250;SDS011;41295;48.518;9.206;2023-07-24T04:59:46;18.52;;;9.70;;
32250;SDS011;41295;48.518;9.206;2023-07-24T05:01:49;17.70;;;9.27;;
32250;SDS011;41295;48.518;9.206;2023-07-24T05:03:52;15.40;;;8.43;;
32250;SDS011;41295;48.518;9.206;2023-07-24T05:05:54;17.80;;;9.43;;
32250;SDS011;41295;48.518;9.206;2023-07-24T05:07:57;17.98;;;9.15;;
32250;SDS011;41295;48.518;9.206;2023-07-24T05:10:00;18.20;;;9.82;;
32250;SDS011;41295;48.518;9.206;2023-07-24T05:12:03;16.23;;;8.82;;
32250;SDS011;41295;48.518;9.206;2023-07-24T05:14:07;15.85;;;8.75;;
32250;SDS011;41295;48.518;9.206;2023-07-24T05:16:10;15.70;;;8.52;;
32250;SDS011;41295;48.518;9.206;2023-07-24T05:18:13;18.73;;;10.05;;
32250;SDS011;41295;48.518;9.206;2023-07-24T05:20:16;16.95;;;9.55;;
32250;SDS011;41295;48.518;9.206;2023-07-24T05:22:19;18.17;;;9.57;;
32250;SDS011;41295;48.518;9.206;2023-07-24T05:24:21;18.55;;;9.50;;
32250;SDS011;41295;48.518;9.206;2023-07-24T05:26:24;17.52;;;9.43;;
32250;SDS011;41295;48.518;9.206;2023-07-24T05:28:27;16.10;;;10.10;;
32250;SDS011;41295;48.518;9.206;2023-07-24T05:30:29;18.70;;;9.30;;
32250;SDS011;41295;48.518;9.206;2023-07-24T05:32:33;14.48;;;8.50;;
32250;SDS011;41295;48.518;9.206;2023-07-24T05:34:35;17.38;;;9.38;;
32250;SDS011;41295;48.518;9.206;2023-07-24T05:36:38;21.23;;;9.57;;
32250;SDS011;41295;48.518;9.206;2023-07-24T05:38:41;18.40;;;9.52;;
32250;SDS011;41295;48.518;9.206;2023-07-24T05:40:43;17.20;;;9.55;;
32250;SDS011;41295;48.518;9.206;2023-07-24T05:42:46;17.88;;;9.05;;
32250;SDS011;41295;48.518;9.206;2023-07-24T05:44:49;18.33;;;9.52;;
32250;SDS011;41295;48.518;9.206;2023-07-24T05:46:51;21.15;;;10.00;;
32250;SDS011;41295;48.518;9.206;2023-07-24T05:48:55;15.63;;;9.35;;
32250;SDS011;41295;48.518;9.206;2023-07-24T05:50:58;17.55;;;9.10;;
32250;SDS011;41295;48.518;9.206;2023-07-24T05:53:01;17.58;;;8.85;;
32250;SDS011;41295;48.518;9.206;2023-07-24T05:55:04;20.75;;;9.93;;
32250;SDS011;41295;48.518;9.206;2023-07-24T05:57:07;17.35;;;9.18;;
32250;SDS011;41295;48.518;9.206;2023-07-24T05:59:09;16.90;;;10.07;;
32250;SDS011;41295;48.518;9.206;2023-07-24T06:01:12;16.50;;;9.15;;
32250;SDS011;41295;48.518;9.206;2023-07-24T06:03:13;19.70;;;9.85;;
32250;SDS011;41295;48.518;9.206;2023-07-24T06:05:18;14.68;;;9.25;;
32250;SDS011;41295;48.518;9.206;2023-07-24T06:07:21;18.20;;;9.93;;
32250;SDS011;41295;48.518;9.206;2023-07-24T06:09:23;17.08;;;9.32;;
32250;SDS011;41295;48.518;9.206;2023-07-24T06:11:26;17.75;;;9.82;;
32250;SDS011;41295;48.518;9.206;2023-07-24T06:13:29;16.90;;;9.63;;
32250;SDS011;41295;48.518;9.206;2023-07-24T06:15:31;17.48;;;9.88;;
32250;SDS011;41295;48.518;9.206;2023-07-24T06:17:34;21.60;;;9.57;;
32250;SDS011;41295;48.518;9.206;2023-07-24T06:19:37;19.33;;;10.15;;
32250;SDS011;41295;48.518;9.206;2023-07-24T06:21:41;17.48;;;9.68;;
32250;SDS011;41295;48.518;9.206;2023-07-24T06:23:44;17.13;;;9.75;;
32250;SDS011;41295;48.518;9.206;2023-07-24T06:25:47;18.02;;;9.82;;
32250;SDS011;41295;48.518;9.206;2023-07-24T06:27:49;15.98;;;9.52;;
32250;SDS011;41295;48.518;9.206;2023-07-24T06:29:52;19.75;;;9.90;;
32250;SDS011;41295;48.518;9.206;2023-07-24T06:32:05;16.55;;;9.32;;
32250;SDS011;41295;48.518;9.206;2023-07-24T06:34:08;17.48;;;10.55;;
32250;SDS011;41295;48.518;9.206;2023-07-24T06:36:11;17.85;;;9.85;;
32250;SDS011;41295;48.518;9.206;2023-07-24T06:38:15;21.38;;;10.27;;
32250;SDS011;41295;48.518;9.206;2023-07-24T06:40:18;18.02;;;9.90;;
32250;SDS011;41295;48.518;9.206;2023-07-24T06:42:21;17.67;;;9.88;;
32250;SDS011;41295;48.518;9.206;2023-07-24T06:44:23;20.13;;;10.27;;
32250;SDS011;41295;48.518;9.206;2023-07-24T06:46:26;23.13;;;9.50;;
32250;SDS011;41295;48.518;9.206;2023-07-24T06:48:30;20.75;;;9.80;;
32250;SDS011;41295;48.518;9.206;2023-07-24T06:50:33;16.40;;;9.27;;
32250;SDS011;41295;48.518;9.206;2023-07-24T06:52:35;16.67;;;9.55;;
32250;SDS011;41295;48.518;9.206;2023-07-24T06:54:39;18.15;;;10.10;;
32250;SDS011;41295;48.518;9.206;2023-07-24T06:56:41;18.17;;;9.93;;
32250;SDS011;41295;48.518;9.206;2023-07-24T06:58:44;20.27;;;9.48;;
32250;SDS011;41295;48.518;9.206;2023-07-24T07:00:47;20.45;;;9.13;;
32250;SDS011;41295;48.518;9.206;2023-07-24T07:02:49;18.15;;;10.10;;
32250;SDS011;41295;48.518;9.206;2023-07-24T07:04:52;17.80;;;9.70;;
32250;SDS011;41295;48.518;9.206;2023-07-24T07:06:55;19.02;;;10.25;;
32250;SDS011;41295;48.518;9.206;2023-07-24T07:08:57;17.20;;;9.45;;
32250;SDS011;41295;48.518;9.206;2023-07-24T07:11:01;23.08;;;9.85;;
32250;SDS011;41295;48.518;9.206;2023-07-24T07:13:04;18.48;;;10.00;;
32250;SDS011;41295;48.518;9.206;2023-07-24T07:15:07;17.00;;;10.10;;
32250;SDS011;41295;48.518;9.206;2023-07-24T07:17:10;18.08;;;10.20;;
32250;SDS011;41295;48.518;9.206;2023-07-24T07:19:12;16.60;;;10.27;;
32250;SDS011;41295;48.518;9.206;2023-07-24T07:21:15;17.00;;;10.18;;
32250;SDS011;41295;48.518;9.206;2023-07-24T07:23:18;18.92;;;9.50;;
32250;SDS011;41295;48.518;9.206;2023-07-24T07:25:21;15.02;;;9.25;;
32250;SDS011;41295;48.518;9.206;2023-07-24T07:27:25;21.75;;;10.70;;
32250;SDS011;41295;48.518;9.206;2023-07-24T07:29:28;20.17;;;11.00;;
32250;SDS011;41295;48.518;9.206;2023-07-24T07:31:32;20.35;;;10.30;;
32250;SDS011;41295;48.518;9.206;2023-07-24T07:33:35;17.60;;;9.23;;
32250;SDS011;41295;48.518;9.206;2023-07-24T07:35:38;17.63;;;9.13;;
32250;SDS011;41295;48.518;9.206;2023-07-24T07:37:40;18.75;;;9.45;;
32250;SDS011;41295;48.518;9.206;2023-07-24T07:39:43;16.63;;;9.95;;
32250;SDS011;41295;48.518;9.206;2023-07-24T07:41:45;17.70;;;9.55;;
32250;SDS011;41295;48.518;9.206;2023-07-24T07:43:49;17.23;;;9.27;;
32250;SDS011;41295;48.518;9.206;2023-07-24T07:45:52;18.67;;;9.35;;
32250;SDS011;41295;48.518;9.206;2023-07-24T07:47:54;18.13;;;8.93;;
32250;SDS011;41295;48.518;9.206;2023-07-24T07:49:56;15.40;;;8.73;;
32250;SDS011;41295;48.518;9.206;2023-07-24T07:51:59;15.10;;;8.60;;
32250;SDS011;41295;48.518;9.206;2023-07-24T07:54:02;13.45;;;8.57;;
32250;SDS011;41295;48.518;9.206;2023-07-24T07:56:05;15.63;;;8.63;;
32250;SDS011;41295;48.518;9.206;2023-07-24T07:58:08;18.13;;;8.50;;
32250;SDS011;41295;48.518;9.206;2023-07-24T08:00:12;15.50;;;9.18;;
32250;SDS011;41295;48.518;9.206;2023-07-24T08:02:15;16.08;;;8.95;;
32250;SDS011;41295;48.518;9.206;2023-07-24T08:04:18;14.55;;;8.45;;
32250;SDS011;41295;48.518;9.206;2023-07-24T08:06:21;15.63;;;8.63;;
32250;SDS011;41295;48.518;9.206;2023-07-24T08:08:24;16.67;;;8.95;;
32250;SDS011;41295;48.518;9.206;2023-07-24T08:10:26;16.98;;;7.72;;
32250;SDS011;41295;48.518;9.206;2023-07-24T08:12:29;15.75;;;7.78;;
32250;SDS011;41295;48.518;9.206;2023-07-24T08:14:32;13.43;;;7.60;;
32250;SDS011;41295;48.518;9.206;2023-07-24T08:16:36;16.05;;;7.32;;
32250;SDS011;41295;48.518;9.206;2023-07-24T08:18:38;10.65;;;6.18;;
32250;SDS011;41295;48.518;9.206;2023-07-24T08:20:41;12.70;;;6.00;;
32250;SDS011;41295;48.518;9.206;2023-07-24T08:22:44;10.38;;;6.38;;
32250;SDS011;41295;48.518;9.206;2023-07-24T08:24:47;13.55;;;5.78;;
32250;SDS011;41295;48.518;9.206;2023-07-24T08:26:52;12.65;;;5.55;;
32250;SDS011;41295;48.518;9.206;2023-07-24T08:28:54;11.73;;;6.30;;
32250;SDS011;41295;48.518;9.206;2023-07-24T08:30:57;15.02;;;7.78;;
32250;SDS011;41295;48.518;9.206;2023-07-24T08:33:01;16.27;;;7.15;;
32250;SDS011;41295;48.518;9.206;2023-07-24T08:35:05;16.90;;;7.78;;
32250;SDS011;41295;48.518;9.206;2023-07-24T08:37:08;12.27;;;7.63;;
32250;SDS011;41295;48.518;9.206;2023-07-24T08:39:11;16.27;;;7.57;;
32250;SDS011;41295;48.518;9.206;2023-07-24T08:41:14;15.35;;;7.85;;
32250;SDS011;41295;48.518;9.206;2023-07-24T08:43:17;12.73;;;7.60;;
32250;SDS011;41295;48.518;9.206;2023-07-24T08:45:19;16.00;;;7.30;;
32250;SDS011;41295;48.518;9.206;2023-07-24T08:47:22;16.05;;;7.10;;
32250;SDS011;41295;48.518;9.206;2023-07-24T08:49:28;13.13;;;7.97;;
32250;SDS011;41295;48.518;9.206;2023-07-24T08:51:31;14.05;;;7.40;;
32250;SDS011;41295;48.518;9.206;2023-07-24T08:53:35;16.33;;;7.30;;
32250;SDS011;41295;48.518;9.206;2023-07-24T08:55:39;12.02;;;7.20;;
32250;SDS011;41295;48.518;9.206;2023-07-24T08:57:42;15.65;;;7.50;;
32250;SDS011;41295;48.518;9.206;2023-07-24T08:59:45;23.08;;;8.00;;
32250;SDS011;41295;48.518;9.206;2023-07-24T09:01:48;12.57;;;7.20;;
32250;SDS011;41295;48.518;9.206;2023-07-24T09:03:50;18.10;;;8.13;;
32250;SDS011;41295;48.518;9.206;2023-07-24T09:05:55;15.15;;;7.05;;
32250;SDS011;41295;48.518;9.206;2023-07-24T09:07:57;10.98;;;6.68;;
32250;SDS011;41295;48.518;9.206;2023-07-24T09:10:00;15.32;;;7.13;;
32250;SDS011;41295;48.518;9.206;2023-07-24T09:12:03;11.70;;;6.10;;
32250;SDS011;41295;48.518;9.206;2023-07-24T09:14:06;13.30;;;6.93;;
32250;SDS011;41295;48.518;9.206;2023-07-24T09:16:20;13.43;;;6.97;;
32250;SDS011;41295;48.518;9.206;2023-07-24T09:18:24;13.77;;;6.95;;
32250;SDS011;41295;48.518;9.206;2023-07-24T09:20:37;12.13;;;7.22;;
32250;SDS011;41295;48.518;9.206;2023-07-24T09:22:48;12.52;;;6.72;;
32250;SDS011;41295;48.518;9.206;2023-07-24T09:25:11;9.57;;;6.20;;
32250;SDS011;41295;48.518;9.206;2023-07-24T09:27:13;13.57;;;6.50;;
32250;SDS011;41295;48.518;9.206;2023-07-24T09:29:16;12.25;;;6.38;;
32250;SDS011;41295;48.518;9.206;2023-07-24T09:31:19;10.93;;;6.13;;
32250;SDS011;41295;48.518;9.206;2023-07-24T09:33:22;9.70;;;6.28;;
32250;SDS011;41295;48.518;9.206;2023-07-24T09:35:25;10.32;;;6.45;;
32250;SDS011;41295;48.518;9.206;2023-07-24T09:37:30;10.90;;;6.30;;
32250;SDS011;41295;48.518;9.206;2023-07-24T09:39:34;14.05;;;6.75;;
32250;SDS011;41295;48.518;9.206;2023-07-24T09:41:37;11.23;;;6.75;;
32250;SDS011;41295;48.518;9.206;2023-07-24T09:43:41;15.68;;;7.75;;
32250;SDS011;41295;48.518;9.206;2023-07-24T09:45:44;10.38;;;6.60;;
32250;SDS011;41295;48.518;9.206;2023-07-24T09:47:47;10.23;;;6.43;;
32250;SDS011;41295;48.518;9.206;2023-07-24T09:49:59;12.68;;;7.38;;
32250;SDS011;41295;48.518;9.206;2023-07-24T09:52:02;13.32;;;6.68;;
32250;SDS011;41295;48.518;9.206;2023-07-24T09:54:12;12.95;;;6.47;;
32250;SDS011;41295;48.518;9.206;2023-07-24T09:56:23;11.00;;;6.63;;
32250;SDS011;41295;48.518;9.206;2023-07-24T09:58:43;15.02;;;7.32;;
32250;SDS011;41295;48.518;9.206;2023-07-24T10:00:47;14.00;;;7.22;;
32250;SDS011;41295;48.518;9.206;2023-07-24T10:02:51;16.83;;;9.43;;
32250;SDS011;41295;48.518;9.206;2023-07-24T10:04:55;16.60;;;9.93;;
32250;SDS011;41295;48.518;9.206;2023-07-24T10:06:58;17.95;;;8.57;;
32250;SDS011;41295;48.518;9.206;2023-07-24T10:09:00;13.65;;;8.27;;
32250;SDS011;41295;48.518;9.206;2023-07-24T10:11:04;16.13;;;8.18;;
32250;SDS011;41295;48.518;9.206;2023-07-24T10:13:08;12.65;;;7.28;;
32250;SDS011;41295;48.518;9.206;2023-07-24T10:15:14;11.48;;;6.78;;
32250;SDS011;41295;48.518;9.206;2023-07-24T10:17:24;16.42;;;7.28;;
32250;SDS011;41295;48.518;9.206;2023-07-24T10:19:38;13.75;;;7.57;;
32250;SDS011;41295;48.518;9.206;2023-07-24T10:21:44;16.63;;;8.35;;
32250;SDS011;41295;48.518;9.206;2023-07-24T10:23:48;13.50;;;7.65;;
32250;SDS011;41295;48.518;9.206;2023-07-24T10:25:51;12.48;;;7.03;;
32250;SDS011;41295;48.518;9.206;2023-07-24T10:27:54;16.00;;;7.35;;
32250;SDS011;41295;48.518;9.206;2023-07-24T10:29:59;11.70;;;6.75;;
32250;SDS011;41295;48.518;9.206;2023-07-24T10:32:01;13.18;;;7.13;;
32250;SDS011;41295;48.518;9.206;2023-07-24T10:34:04;12.95;;;7.63;;
32250;SDS011;41295;48.518;9.206;2023-07-24T10:36:08;15.68;;;8.30;;
32250;SDS011;41295;48.518;9.206;2023-07-24T10:38:14;20.25;;;10.48;;
32250;SDS011;41295;48.518;9.206;2023-07-24T10:40:18;17.60;;;10.18;;
32250;SDS011;41295;48.518;9.206;2023-07-24T10:42:22;17.17;;;8.00;;
32250;SDS011;41295;48.518;9.206;2023-07-24T10:44:30;19.15;;;8.73;;
32250;SDS011;41295;48.518;9.206;2023-07-24T10:46:37;14.73;;;8.45;;
32250;SDS011;41295;48.518;9.206;2023-07-24T10:48:42;17.73;;;9.65;;
32250;SDS011;41295;48.518;9.206;2023-07-24T10:50:46;15.00;;;9.52;;
32250;SDS011;41295;48.518;9.206;2023-07-24T10:52:54;15.77;;;8.00;;
32250;SDS011;41295;48.518;9.206;2023-07-24T10:54:59;14.27;;;6.95;;
32250;SDS011;41295;48.518;9.206;2023-07-24T10:57:03;12.45;;;6.40;;
32250;SDS011;41295;48.518;9.206;2023-07-24T10:59:06;15.50;;;8.82;;
32250;SDS011;41295;48.518;9.206;2023-07-24T11:01:09;23.65;;;14.00;;
32250;SDS011;41295;48.518;9.206;2023-07-24T11:03:14;19.40;;;11.52;;
32250;SDS011;41295;48.518;9.206;2023-07-24T11:05:17;13.93;;;7.43;;
32250;SDS011;41295;48.518;9.206;2023-07-24T11:07:20;13.85;;;8.02;;
32250;SDS011;41295;48.518;9.206;2023-07-24T11:09:33;16.55;;;9.35;;
32250;SDS011;41295;48.518;9.206;2023-07-24T11:11:36;16.77;;;8.10;;
32250;SDS011;41295;48.518;9.206;2023-07-24T11:13:39;13.40;;;6.38;;
32250;SDS011;41295;48.518;9.206;2023-07-24T11:15:42;12.93;;;6.18;;
32250;SDS011;41295;48.518;9.206;2023-07-24T11:17:44;12.95;;;6.80;;
32250;SDS011;41295;48.518;9.206;2023-07-24T11:19:47;13.88;;;6.68;;
32250;SDS011;41295;48.518;9.206;2023-07-24T11:21:50;10.77;;;6.53;;
32250;SDS011;41295;48.518;9.206;2023-07-24T11:23:53;12.88;;;6.55;;
32250;SDS011;41295;48.518;9.206;2023-07-24T11:25:57;12.65;;;6.65;;
32250;SDS011;41295;48.518;9.206;2023-07-24T11:28:00;11.82;;;6.60;;
32250;SDS011;41295;48.518;9.206;2023-07-24T11:30:06;12.15;;;6.45;;
32250;SDS011;41295;48.518;9.206;2023-07-24T11:32:09;13.02;;;6.75;;
32250;SDS011;41295;48.518;9.206;2023-07-24T11:34:12;13.50;;;6.78;;
32250;SDS011;41295;48.518;9.206;2023-07-24T11:36:16;11.63;;;6.88;;
32250;SDS011;41295;48.518;9.206;2023-07-24T11:38:19;9.82;;;6.03;;
32250;SDS011;41295;48.518;9.206;2023-07-24T11:40:29;12.55;;;7.00;;
32250;SDS011;41295;48.518;9.206;2023-07-24T11:42:33;10.98;;;6.38;;
32250;SDS011;41295;48.518;9.206;2023-07-24T11:44:38;10.63;;;6.78;;
32250;SDS011;41295;48.518;9.206;2023-07-24T11:46:42;10.55;;;6.50;;
32250;SDS011;41295;48.518;9.206;2023-07-24T11:48:45;10.43;;;6.50;;
32250;SDS011;41295;48.518;9.206;2023-07-24T11:50:48;10.57;;;6.75;;
32250;SDS011;41295;48.518;9.206;2023-07-24T11:52:53;11.23;;;6.60;;
32250;SDS011;41295;48.518;9.206;2023-07-24T11:54:55;12.18;;;6.65;;
32250;SDS011;41295;48.518;9.206;2023-07-24T11:56:59;11.63;;;7.10;;
32250;SDS011;41295;48.518;9.206;2023-07-24T11:59:08;12.73;;;6.07;;
32250;SDS011;41295;48.518;9.206;2023-07-24T12:01:12;12.90;;;7.15;;
32250;SDS011;41295;48.518;9.206;2023-07-24T12:03:18;9.80;;;6.03;;
32250;SDS011;41295;48.518;9.206;2023-07-24T12:05:23;11.02;;;6.45;;
32250;SDS011;41295;48.518;9.206;2023-07-24T12:07:29;11.07;;;6.30;;
32250;SDS011;41295;48.518;9.206;2023-07-24T12:09:35;13.38;;;6.20;;
32250;SDS011;41295;48.518;9.206;2023-07-24T12:11:39;10.40;;;5.60;;
32250;SDS011;41295;48.518;9.206;2023-07-24T12:13:41;8.25;;;5.07;;